sensor_id;sensor_type;location;lat;lon;timestamp;P1;durP1;ratioP1;P2;durP2;ratioP2
54167;SDS011;68429;50.958;3.592;2023-08-17T00:00:40;12.38;;;5.10;;
54167;SDS011;68429;50.958;3.592;2023-08-17T00:03:05;7.10;;;4.55;;
54167;SDS011;68429;50.958;3.592;2023-08-17T00:05:31;6.50;;;4.43;;
54167;SDS011;68429;50.958;3.592;2023-08-17T00:07:59;5.68;;;4.47;;
54167;SDS011;68429;50.958;3.592;2023-08-17T00:10:26;5.43;;;4.78;;
54167;SDS011;68429;50.958;3.592;2023-08-17T00:12:51;5.32;;;4.30;;
54167;SDS011;68429;50.958;3.592;2023-08-17T00:15:17;6.35;;;4.57;;
54167;SDS011;68429;50.958;3.592;2023-08-17T00:17:43;7.30;;;4.68;;
54167;SDS011;68429;50.958;3.592;2023-08-17T00:20:08;7.40;;;4.40;;
54167;SDS011;68429;50.958;3.592;2023-08-17T00:22:35;5.47;;;4.82;;
54167;SDS011;68429;50.958;3.592;2023-08-17T00:25:01;10.60;;;5.10;;
54167;SDS011;68429;50.958;3.592;2023-08-17T00:27:29;8.40;;;5.32;;
54167;SDS011;68429;50.958;3.592;2023-08-17T00:29:57;5.95;;;5.38;;
54167;SDS011;68429;50.958;3.592;2023-08-17T00:32:22;7.95;;;5.47;;
54167;SDS011;68429;50.958;3.592;2023-08-17T00:34:48;11.80;;;6.15;;
54167;SDS011;68429;50.958;3.592;2023-08-17T00:37:14;12.70;;;6.85;;
54167;SDS011;68429;50.958;3.592;2023-08-17T00:39:39;8.50;;;6.78;;
54167;SDS011;68429;50.958;3.592;2023-08-17T00:42:05;6.95;;;6.15;;
54167;SDS011;68429;50.958;3.592;2023-08-17T00:44:32;7.78;;;5.90;;
54167;SDS011;68429;50.958;3.592;2023-08-17T00:46:58;14.02;;;7.38;;
54167;SDS011;68429;50.958;3.592;2023-08-17T00:49:24;9.02;;;6.40;;
54167;SDS011;68429;50.958;3.592;2023-08-17T00:51:50;8.30;;;6.10;;
54167;SDS011;68429;50.958;3.592;2023-08-17T00:54:17;8.60;;;6.90;;
54167;SDS011;68429;50.958;3.592;2023-08-17T00:56:50;10.13;;;7.43;;
54167;SDS011;68429;50.958;3.592;2023-08-17T00:59:17;10.70;;;7.90;;
54167;SDS011;68429;50.958;3.592;2023-08-17T01:01:43;8.32;;;7.57;;
54167;SDS011;68429;50.958;3.592;2023-08-17T01:04:09;11.23;;;8.52;;
54167;SDS011;68429;50.958;3.592;2023-08-17T01:06:35;18.45;;;9.23;;
54167;SDS011;68429;50.958;3.592;2023-08-17T01:09:00;11.82;;;8.07;;
54167;SDS011;68429;50.958;3.592;2023-08-17T01:14:27;10.27;;;7.32;;
54167;SDS011;68429;50.958;3.592;2023-08-17T01:17:37;12.45;;;8.27;;
54167;SDS011;68429;50.958;3.592;2023-08-17T01:19:58;13.48;;;7.30;;
54167;SDS011;68429;50.958;3.592;2023-08-17T01:22:25;10.98;;;7.60;;
54167;SDS011;68429;50.958;3.592;2023-08-17T01:24:55;9.48;;;8.07;;
54167;SDS011;68429;50.958;3.592;2023-08-17T01:27:23;10.27;;;8.07;;
54167;SDS011;68429;50.958;3.592;2023-08-17T01:29:50;11.13;;;7.28;;
54167;SDS011;68429;50.958;3.592;2023-08-17T01:32:18;10.27;;;7.47;;
54167;SDS011;68429;50.958;3.592;2023-08-17T01:34:58;8.20;;;6.88;;
54167;SDS011;68429;50.958;3.592;2023-08-17T01:37:29;11.25;;;6.50;;
54167;SDS011;68429;50.958;3.592;2023-08-17T01:39:58;10.63;;;6.85;;
54167;SDS011;68429;50.958;3.592;2023-08-17T01:42:24;11.20;;;6.35;;
54167;SDS011;68429;50.958;3.592;2023-08-17T01:44:51;6.95;;;5.03;;
54167;SDS011;68429;50.958;3.592;2023-08-17T01:47:20;7.22;;;5.30;;
54167;SDS011;68429;50.958;3.592;2023-08-17T01:49:49;9.55;;;4.68;;
54167;SDS011;68429;50.958;3.592;2023-08-17T01:52:15;6.65;;;4.10;;
54167;SDS011;68429;50.958;3.592;2023-08-17T01:54:41;9.50;;;5.10;;
54167;SDS011;68429;50.958;3.592;2023-08-17T01:57:06;9.23;;;4.05;;
54167;SDS011;68429;50.958;3.592;2023-08-17T01:59:32;7.82;;;4.32;;
54167;SDS011;68429;50.958;3.592;2023-08-17T02:01:57;6.75;;;4.03;;
54167;SDS011;68429;50.958;3.592;2023-08-17T02:04:24;12.85;;;4.40;;
54167;SDS011;68429;50.958;3.592;2023-08-17T02:06:50;6.03;;;3.80;;
54167;SDS011;68429;50.958;3.592;2023-08-17T02:09:15;8.15;;;3.65;;
54167;SDS011;68429;50.958;3.592;2023-08-17T02:11:41;10.80;;;3.42;;
54167;SDS011;68429;50.958;3.592;2023-08-17T02:14:06;4.40;;;3.70;;
54167;SDS011;68429;50.958;3.592;2023-08-17T02:16:32;7.28;;;3.72;;
54167;SDS011;68429;50.958;3.592;2023-08-17T02:18:58;6.07;;;3.47;;
54167;SDS011;68429;50.958;3.592;2023-08-17T02:21:23;13.73;;;4.03;;
54167;SDS011;68429;50.958;3.592;2023-08-17T02:23:49;6.20;;;3.22;;
54167;SDS011;68429;50.958;3.592;2023-08-17T02:26:15;10.07;;;4.07;;
54167;SDS011;68429;50.958;3.592;2023-08-17T02:28:40;9.23;;;3.70;;
54167;SDS011;68429;50.958;3.592;2023-08-17T02:31:06;6.97;;;3.63;;
54167;SDS011;68429;50.958;3.592;2023-08-17T02:33:31;9.60;;;3.22;;
54167;SDS011;68429;50.958;3.592;2023-08-17T02:35:58;6.28;;;3.13;;
54167;SDS011;68429;50.958;3.592;2023-08-17T02:38:24;4.88;;;3.13;;
54167;SDS011;68429;50.958;3.592;2023-08-17T02:40:50;6.13;;;3.15;;
54167;SDS011;68429;50.958;3.592;2023-08-17T02:43:15;7.20;;;3.22;;
54167;SDS011;68429;50.958;3.592;2023-08-17T02:45:41;6.85;;;3.30;;
54167;SDS011;68429;50.958;3.592;2023-08-17T02:48:07;5.20;;;2.90;;
54167;SDS011;68429;50.958;3.592;2023-08-17T02:50:32;9.05;;;3.45;;
54167;SDS011;68429;50.958;3.592;2023-08-17T02:52:58;7.47;;;3.70;;
54167;SDS011;68429;50.958;3.592;2023-08-17T02:55:24;8.27;;;3.33;;
54167;SDS011;68429;50.958;3.592;2023-08-17T02:57:50;9.63;;;3.97;;
54167;SDS011;68429;50.958;3.592;2023-08-17T03:00:16;6.95;;;3.33;;
54167;SDS011;68429;50.958;3.592;2023-08-17T03:02:41;7.75;;;3.38;;
54167;SDS011;68429;50.958;3.592;2023-08-17T03:05:07;4.63;;;3.08;;
54167;SDS011;68429;50.958;3.592;2023-08-17T03:07:33;8.73;;;3.55;;
54167;SDS011;68429;50.958;3.592;2023-08-17T03:09:58;5.85;;;3.30;;
54167;SDS011;68429;50.958;3.592;2023-08-17T03:12:24;9.00;;;3.38;;
54167;SDS011;68429;50.958;3.592;2023-08-17T03:14:49;6.55;;;3.10;;
54167;SDS011;68429;50.958;3.592;2023-08-17T03:17:15;7.55;;;3.17;;
54167;SDS011;68429;50.958;3.592;2023-08-17T03:19:41;6.40;;;3.05;;
54167;SDS011;68429;50.958;3.592;2023-08-17T03:22:06;7.85;;;3.42;;
54167;SDS011;68429;50.958;3.592;2023-08-17T03:24:32;6.03;;;3.28;;
54167;SDS011;68429;50.958;3.592;2023-08-17T03:26:58;7.20;;;3.03;;
54167;SDS011;68429;50.958;3.592;2023-08-17T03:29:23;9.07;;;3.00;;
54167;SDS011;68429;50.958;3.592;2023-08-17T03:31:51;7.57;;;3.08;;
54167;SDS011;68429;50.958;3.592;2023-08-17T03:34:16;7.55;;;2.97;;
54167;SDS011;68429;50.958;3.592;2023-08-17T03:36:42;5.80;;;2.80;;
54167;SDS011;68429;50.958;3.592;2023-08-17T03:39:07;6.40;;;2.95;;
54167;SDS011;68429;50.958;3.592;2023-08-17T03:41:33;4.20;;;2.80;;
54167;SDS011;68429;50.958;3.592;2023-08-17T03:44:01;10.10;;;3.10;;
54167;SDS011;68429;50.958;3.592;2023-08-17T03:46:28;6.30;;;3.10;;
54167;SDS011;68429;50.958;3.592;2023-08-17T03:48:54;7.05;;;3.78;;
54167;SDS011;68429;50.958;3.592;2023-08-17T03:51:20;8.80;;;3.45;;
54167;SDS011;68429;50.958;3.592;2023-08-17T03:53:45;7.03;;;3.38;;
54167;SDS011;68429;50.958;3.592;2023-08-17T03:56:11;6.30;;;3.60;;
54167;SDS011;68429;50.958;3.592;2023-08-17T03:58:36;11.23;;;3.70;;
54167;SDS011;68429;50.958;3.592;2023-08-17T04:01:02;9.02;;;3.42;;
54167;SDS011;68429;50.958;3.592;2023-08-17T04:03:31;3.50;;;3.20;;
54167;SDS011;68429;50.958;3.592;2023-08-17T04:05:56;6.43;;;3.50;;
54167;SDS011;68429;50.958;3.592;2023-08-17T04:08:22;7.32;;;3.80;;
54167;SDS011;68429;50.958;3.592;2023-08-17T04:10:47;9.65;;;4.10;;
54167;SDS011;68429;50.958;3.592;2023-08-17T04:13:13;6.53;;;3.53;;
54167;SDS011;68429;50.958;3.592;2023-08-17T04:15:39;7.75;;;3.15;;
54167;SDS011;68429;50.958;3.592;2023-08-17T04:18:04;9.35;;;3.33;;
54167;SDS011;68429;50.958;3.592;2023-08-17T04:20:30;8.38;;;3.40;;
54167;SDS011;68429;50.958;3.592;2023-08-17T04:22:56;6.00;;;3.95;;
54167;SDS011;68429;50.958;3.592;2023-08-17T04:25:21;4.07;;;3.13;;
54167;SDS011;68429;50.958;3.592;2023-08-17T04:27:47;14.57;;;4.07;;
54167;SDS011;68429;50.958;3.592;2023-08-17T04:30:13;8.20;;;3.80;;
54167;SDS011;68429;50.958;3.592;2023-08-17T04:32:38;6.60;;;3.75;;
54167;SDS011;68429;50.958;3.592;2023-08-17T04:35:04;10.90;;;3.83;;
54167;SDS011;68429;50.958;3.592;2023-08-17T04:37:30;9.15;;;4.40;;
54167;SDS011;68429;50.958;3.592;2023-08-17T04:39:56;9.77;;;4.30;;
54167;SDS011;68429;50.958;3.592;2023-08-17T04:42:21;6.05;;;3.38;;
54167;SDS011;68429;50.958;3.592;2023-08-17T04:44:47;10.02;;;4.05;;
54167;SDS011;68429;50.958;3.592;2023-08-17T04:47:13;9.75;;;4.07;;
54167;SDS011;68429;50.958;3.592;2023-08-17T04:49:38;8.90;;;3.47;;
54167;SDS011;68429;50.958;3.592;2023-08-17T04:52:04;11.77;;;4.35;;
54167;SDS011;68429;50.958;3.592;2023-08-17T04:54:30;6.45;;;3.65;;
54167;SDS011;68429;50.958;3.592;2023-08-17T04:56:55;8.95;;;4.53;;
54167;SDS011;68429;50.958;3.592;2023-08-17T04:59:21;7.20;;;3.90;;
54167;SDS011;68429;50.958;3.592;2023-08-17T05:01:46;9.52;;;4.20;;
54167;SDS011;68429;50.958;3.592;2023-08-17T05:04:12;5.28;;;3.97;;
54167;SDS011;68429;50.958;3.592;2023-08-17T05:06:38;6.90;;;3.40;;
54167;SDS011;68429;50.958;3.592;2023-08-17T05:09:04;8.50;;;3.83;;
54167;SDS011;68429;50.958;3.592;2023-08-17T05:11:30;9.45;;;3.65;;
54167;SDS011;68429;50.958;3.592;2023-08-17T05:13:56;7.43;;;3.22;;
54167;SDS011;68429;50.958;3.592;2023-08-17T05:16:21;6.22;;;4.07;;
54167;SDS011;68429;50.958;3.592;2023-08-17T05:18:47;8.07;;;3.63;;
54167;SDS011;68429;50.958;3.592;2023-08-17T05:21:13;12.80;;;3.53;;
54167;SDS011;68429;50.958;3.592;2023-08-17T05:23:38;6.45;;;3.75;;
54167;SDS011;68429;50.958;3.592;2023-08-17T05:26:04;9.45;;;3.20;;
54167;SDS011;68429;50.958;3.592;2023-08-17T05:28:30;6.70;;;3.97;;
54167;SDS011;68429;50.958;3.592;2023-08-17T05:30:56;10.25;;;3.42;;
54167;SDS011;68429;50.958;3.592;2023-08-17T05:33:27;7.68;;;3.28;;
54167;SDS011;68429;50.958;3.592;2023-08-17T05:35:53;6.25;;;3.60;;
54167;SDS011;68429;50.958;3.592;2023-08-17T05:38:19;9.82;;;3.60;;
54167;SDS011;68429;50.958;3.592;2023-08-17T05:40:45;6.70;;;3.53;;
54167;SDS011;68429;50.958;3.592;2023-08-17T05:43:10;8.65;;;3.72;;
54167;SDS011;68429;50.958;3.592;2023-08-17T05:45:36;8.05;;;3.17;;
54167;SDS011;68429;50.958;3.592;2023-08-17T05:48:02;8.82;;;3.72;;
54167;SDS011;68429;50.958;3.592;2023-08-17T05:50:28;6.55;;;3.20;;
54167;SDS011;68429;50.958;3.592;2023-08-17T05:52:54;5.30;;;3.05;;
54167;SDS011;68429;50.958;3.592;2023-08-17T05:55:20;9.23;;;3.50;;
54167;SDS011;68429;50.958;3.592;2023-08-17T05:57:45;5.97;;;2.92;;
54167;SDS011;68429;50.958;3.592;2023-08-17T06:00:11;6.13;;;2.90;;
54167;SDS011;68429;50.958;3.592;2023-08-17T06:02:38;6.97;;;2.92;;
54167;SDS011;68429;50.958;3.592;2023-08-17T06:05:04;8.52;;;2.92;;
54167;SDS011;68429;50.958;3.592;2023-08-17T06:07:30;12.55;;;3.03;;
54167;SDS011;68429;50.958;3.592;2023-08-17T06:09:56;7.78;;;3.13;;
54167;SDS011;68429;50.958;3.592;2023-08-17T06:12:21;8.77;;;3.92;;
54167;SDS011;68429;50.958;3.592;2023-08-17T06:14:47;7.75;;;3.30;;
54167;SDS011;68429;50.958;3.592;2023-08-17T06:17:12;15.85;;;3.13;;
54167;SDS011;68429;50.958;3.592;2023-08-17T06:19:38;8.32;;;3.20;;
54167;SDS011;68429;50.958;3.592;2023-08-17T06:22:04;9.18;;;3.90;;
54167;SDS011;68429;50.958;3.592;2023-08-17T06:24:30;9.50;;;3.55;;
54167;SDS011;68429;50.958;3.592;2023-08-17T06:26:56;11.13;;;3.63;;
54167;SDS011;68429;50.958;3.592;2023-08-17T06:29:22;7.47;;;2.72;;
54167;SDS011;68429;50.958;3.592;2023-08-17T06:31:47;54.47;;;8.57;;
54167;SDS011;68429;50.958;3.592;2023-08-17T06:34:13;42.45;;;6.95;;
54167;SDS011;68429;50.958;3.592;2023-08-17T06:36:40;38.72;;;6.03;;
54167;SDS011;68429;50.958;3.592;2023-08-17T06:39:05;15.68;;;3.58;;
54167;SDS011;68429;50.958;3.592;2023-08-17T06:41:31;7.18;;;3.10;;
54167;SDS011;68429;50.958;3.592;2023-08-17T06:43:57;7.95;;;3.40;;
54167;SDS011;68429;50.958;3.592;2023-08-17T06:46:22;10.30;;;2.88;;
54167;SDS011;68429;50.958;3.592;2023-08-17T06:48:49;13.32;;;2.60;;
54167;SDS011;68429;50.958;3.592;2023-08-17T06:51:15;6.10;;;3.28;;
54167;SDS011;68429;50.958;3.592;2023-08-17T06:53:40;5.97;;;2.58;;
54167;SDS011;68429;50.958;3.592;2023-08-17T06:56:06;7.20;;;3.25;;
54167;SDS011;68429;50.958;3.592;2023-08-17T06:58:32;5.88;;;2.70;;
54167;SDS011;68429;50.958;3.592;2023-08-17T07:00:57;8.32;;;2.72;;
54167;SDS011;68429;50.958;3.592;2023-08-17T07:03:23;8.57;;;2.90;;
54167;SDS011;68429;50.958;3.592;2023-08-17T07:05:48;5.68;;;2.92;;
54167;SDS011;68429;50.958;3.592;2023-08-17T07:08:14;12.52;;;2.88;;
54167;SDS011;68429;50.958;3.592;2023-08-17T07:10:40;9.85;;;3.03;;
54167;SDS011;68429;50.958;3.592;2023-08-17T07:13:05;5.60;;;2.38;;
54167;SDS011;68429;50.958;3.592;2023-08-17T07:15:31;9.70;;;2.60;;
54167;SDS011;68429;50.958;3.592;2023-08-17T07:17:57;5.38;;;2.85;;
54167;SDS011;68429;50.958;3.592;2023-08-17T07:20:23;6.32;;;2.80;;
54167;SDS011;68429;50.958;3.592;2023-08-17T07:22:48;7.55;;;2.90;;
54167;SDS011;68429;50.958;3.592;2023-08-17T07:25:14;4.93;;;2.50;;
54167;SDS011;68429;50.958;3.592;2023-08-17T07:27:40;9.02;;;3.22;;
54167;SDS011;68429;50.958;3.592;2023-08-17T07:30:07;5.43;;;2.42;;
54167;SDS011;68429;50.958;3.592;2023-08-17T07:32:33;6.35;;;2.58;;
54167;SDS011;68429;50.958;3.592;2023-08-17T07:34:59;10.82;;;2.90;;
54167;SDS011;68429;50.958;3.592;2023-08-17T07:37:25;6.95;;;3.55;;
54167;SDS011;68429;50.958;3.592;2023-08-17T07:39:57;11.48;;;3.13;;
54167;SDS011;68429;50.958;3.592;2023-08-17T07:42:23;5.45;;;2.60;;
54167;SDS011;68429;50.958;3.592;2023-08-17T07:44:49;10.82;;;3.05;;
54167;SDS011;68429;50.958;3.592;2023-08-17T07:47:14;6.45;;;2.40;;
54167;SDS011;68429;50.958;3.592;2023-08-17T07:49:40;4.95;;;2.42;;
54167;SDS011;68429;50.958;3.592;2023-08-17T07:52:05;6.93;;;2.58;;
54167;SDS011;68429;50.958;3.592;2023-08-17T07:54:31;6.10;;;2.58;;
54167;SDS011;68429;50.958;3.592;2023-08-17T07:56:57;8.38;;;2.90;;
54167;SDS011;68429;50.958;3.592;2023-08-17T07:59:23;5.88;;;2.65;;
54167;SDS011;68429;50.958;3.592;2023-08-17T08:01:48;5.85;;;3.20;;
54167;SDS011;68429;50.958;3.592;2023-08-17T08:04:14;5.45;;;3.10;;
54167;SDS011;68429;50.958;3.592;2023-08-17T08:06:39;10.98;;;3.00;;
54167;SDS011;68429;50.958;3.592;2023-08-17T08:09:05;7.65;;;3.20;;
54167;SDS011;68429;50.958;3.592;2023-08-17T08:11:32;7.63;;;3.05;;
54167;SDS011;68429;50.958;3.592;2023-08-17T08:13:57;8.05;;;2.97;;
54167;SDS011;68429;50.958;3.592;2023-08-17T08:16:23;7.05;;;3.25;;
54167;SDS011;68429;50.958;3.592;2023-08-17T08:18:49;7.50;;;3.25;;
54167;SDS011;68429;50.958;3.592;2023-08-17T08:21:14;11.63;;;4.07;;
54167;SDS011;68429;50.958;3.592;2023-08-17T08:23:40;5.55;;;2.78;;
54167;SDS011;68429;50.958;3.592;2023-08-17T08:26:06;10.68;;;3.67;;
54167;SDS011;68429;50.958;3.592;2023-08-17T08:28:31;7.47;;;3.45;;
54167;SDS011;68429;50.958;3.592;2023-08-17T08:31:01;12.95;;;3.45;;
54167;SDS011;68429;50.958;3.592;2023-08-17T08:33:30;18.35;;;4.55;;
54167;SDS011;68429;50.958;3.592;2023-08-17T08:35:56;11.18;;;3.78;;
54167;SDS011;68429;50.958;3.592;2023-08-17T08:38:22;15.15;;;3.65;;
54167;SDS011;68429;50.958;3.592;2023-08-17T08:40:47;8.65;;;3.67;;
54167;SDS011;68429;50.958;3.592;2023-08-17T08:43:14;9.60;;;3.80;;
54167;SDS011;68429;50.958;3.592;2023-08-17T08:45:43;7.65;;;3.70;;
54167;SDS011;68429;50.958;3.592;2023-08-17T08:50:39;12.32;;;4.47;;
54167;SDS011;68429;50.958;3.592;2023-08-17T08:53:08;12.10;;;4.40;;
54167;SDS011;68429;50.958;3.592;2023-08-17T08:55:38;15.63;;;4.90;;
54167;SDS011;68429;50.958;3.592;2023-08-17T08:58:12;12.98;;;4.93;;
54167;SDS011;68429;50.958;3.592;2023-08-17T09:00:40;24.02;;;5.97;;
54167;SDS011;68429;50.958;3.592;2023-08-17T09:03:07;17.90;;;5.90;;
54167;SDS011;68429;50.958;3.592;2023-08-17T09:05:33;18.02;;;6.00;;
54167;SDS011;68429;50.958;3.592;2023-08-17T09:08:01;20.10;;;5.65;;
54167;SDS011;68429;50.958;3.592;2023-08-17T09:10:28;15.27;;;5.00;;
54167;SDS011;68429;50.958;3.592;2023-08-17T09:12:53;13.00;;;4.85;;
54167;SDS011;68429;50.958;3.592;2023-08-17T09:15:19;11.25;;;5.07;;
54167;SDS011;68429;50.958;3.592;2023-08-17T09:17:45;10.80;;;3.92;;
54167;SDS011;68429;50.958;3.592;2023-08-17T09:20:17;9.75;;;4.50;;
54167;SDS011;68429;50.958;3.592;2023-08-17T09:23:19;12.48;;;4.25;;
54167;SDS011;68429;50.958;3.592;2023-08-17T09:25:46;9.05;;;4.35;;
54167;SDS011;68429;50.958;3.592;2023-08-17T09:28:17;14.25;;;4.97;;
54167;SDS011;68429;50.958;3.592;2023-08-17T09:30:56;9.90;;;5.10;;
54167;SDS011;68429;50.958;3.592;2023-08-17T09:33:24;8.68;;;4.38;;
54167;SDS011;68429;50.958;3.592;2023-08-17T09:35:51;16.15;;;4.82;;
54167;SDS011;68429;50.958;3.592;2023-08-17T09:38:18;10.55;;;4.97;;
54167;SDS011;68429;50.958;3.592;2023-08-17T09:40:44;13.13;;;4.40;;
54167;SDS011;68429;50.958;3.592;2023-08-17T09:43:10;10.50;;;4.70;;
54167;SDS011;68429;50.958;3.592;2023-08-17T09:45:39;10.95;;;4.28;;
54167;SDS011;68429;50.958;3.592;2023-08-17T09:48:06;10.10;;;4.60;;
54167;SDS011;68429;50.958;3.592;2023-08-17T09:50:34;10.95;;;5.35;;
54167;SDS011;68429;50.958;3.592;2023-08-17T09:53:01;10.40;;;5.13;;
54167;SDS011;68429;50.958;3.592;2023-08-17T09:55:29;11.55;;;4.78;;
54167;SDS011;68429;50.958;3.592;2023-08-17T09:57:57;10.88;;;5.07;;
54167;SDS011;68429;50.958;3.592;2023-08-17T10:00:23;13.90;;;6.32;;
54167;SDS011;68429;50.958;3.592;2023-08-17T10:02:51;15.20;;;6.13;;
54167;SDS011;68429;50.958;3.592;2023-08-17T10:05:18;10.63;;;6.03;;
54167;SDS011;68429;50.958;3.592;2023-08-17T10:07:47;12.38;;;5.18;;
54167;SDS011;68429;50.958;3.592;2023-08-17T10:10:26;10.48;;;5.53;;
54167;SDS011;68429;50.958;3.592;2023-08-17T10:15:51;8.23;;;5.60;;
54167;SDS011;68429;50.958;3.592;2023-08-17T10:20:58;13.90;;;5.13;;
54167;SDS011;68429;50.958;3.592;2023-08-17T10:23:30;8.50;;;5.07;;
54167;SDS011;68429;50.958;3.592;2023-08-17T10:25:57;12.43;;;4.75;;
54167;SDS011;68429;50.958;3.592;2023-08-17T10:28:24;11.10;;;5.78;;
54167;SDS011;68429;50.958;3.592;2023-08-17T10:30:50;13.05;;;5.18;;
54167;SDS011;68429;50.958;3.592;2023-08-17T10:33:16;9.93;;;4.53;;
54167;SDS011;68429;50.958;3.592;2023-08-17T10:35:43;11.32;;;4.80;;
54167;SDS011;68429;50.958;3.592;2023-08-17T10:38:10;8.38;;;4.72;;
54167;SDS011;68429;50.958;3.592;2023-08-17T10:40:39;10.95;;;4.47;;
54167;SDS011;68429;50.958;3.592;2023-08-17T10:43:06;10.68;;;5.25;;
54167;SDS011;68429;50.958;3.592;2023-08-17T10:45:33;18.00;;;5.03;;
54167;SDS011;68429;50.958;3.592;2023-08-17T10:50:33;7.32;;;4.82;;
54167;SDS011;68429;50.958;3.592;2023-08-17T10:53:10;7.30;;;4.47;;
54167;SDS011;68429;50.958;3.592;2023-08-17T10:55:38;8.20;;;5.47;;
54167;SDS011;68429;50.958;3.592;2023-08-17T10:58:05;9.18;;;4.97;;
54167;SDS011;68429;50.958;3.592;2023-08-17T11:00:37;9.55;;;4.90;;
54167;SDS011;68429;50.958;3.592;2023-08-17T11:03:04;13.18;;;6.07;;
54167;SDS011;68429;50.958;3.592;2023-08-17T11:05:41;11.63;;;4.78;;
54167;SDS011;68429;50.958;3.592;2023-08-17T11:08:20;7.50;;;4.53;;
54167;SDS011;68429;50.958;3.592;2023-08-17T11:13:27;10.63;;;5.00;;
54167;SDS011;68429;50.958;3.592;2023-08-17T11:15:54;10.48;;;5.15;;
54167;SDS011;68429;50.958;3.592;2023-08-17T11:18:20;7.35;;;4.80;;
54167;SDS011;68429;50.958;3.592;2023-08-17T11:20:47;7.45;;;5.00;;
54167;SDS011;68429;50.958;3.592;2023-08-17T11:23:13;6.70;;;4.60;;
54167;SDS011;68429;50.958;3.592;2023-08-17T11:25:41;8.98;;;4.22;;
54167;SDS011;68429;50.958;3.592;2023-08-17T11:28:08;9.73;;;3.73;;
54167;SDS011;68429;50.958;3.592;2023-08-17T11:30:34;16.38;;;3.72;;
54167;SDS011;68429;50.958;3.592;2023-08-17T11:33:03;11.18;;;4.53;;
54167;SDS011;68429;50.958;3.592;2023-08-17T11:35:28;8.40;;;3.75;;
54167;SDS011;68429;50.958;3.592;2023-08-17T11:37:54;7.30;;;3.85;;
54167;SDS011;68429;50.958;3.592;2023-08-17T11:40:20;7.45;;;3.58;;
54167;SDS011;68429;50.958;3.592;2023-08-17T11:42:45;6.85;;;4.07;;
54167;SDS011;68429;50.958;3.592;2023-08-17T11:45:11;8.18;;;3.92;;
54167;SDS011;68429;50.958;3.592;2023-08-17T11:47:38;8.10;;;4.53;;
54167;SDS011;68429;50.958;3.592;2023-08-17T11:50:05;9.80;;;4.82;;
54167;SDS011;68429;50.958;3.592;2023-08-17T11:52:33;7.70;;;4.43;;
54167;SDS011;68429;50.958;3.592;2023-08-17T11:54:59;10.70;;;5.53;;
54167;SDS011;68429;50.958;3.592;2023-08-17T11:57:25;7.65;;;5.18;;
54167;SDS011;68429;50.958;3.592;2023-08-17T11:59:54;9.23;;;5.28;;
54167;SDS011;68429;50.958;3.592;2023-08-17T12:02:23;13.63;;;5.57;;
54167;SDS011;68429;50.958;3.592;2023-08-17T12:04:49;7.38;;;5.63;;
54167;SDS011;68429;50.958;3.592;2023-08-17T12:07:15;6.90;;;5.25;;
54167;SDS011;68429;50.958;3.592;2023-08-17T12:09:42;9.48;;;6.07;;
54167;SDS011;68429;50.958;3.592;2023-08-17T12:12:09;10.48;;;6.10;;
54167;SDS011;68429;50.958;3.592;2023-08-17T12:14:36;10.80;;;6.60;;
54167;SDS011;68429;50.958;3.592;2023-08-17T12:17:02;9.75;;;6.35;;
54167;SDS011;68429;50.958;3.592;2023-08-17T12:19:29;9.13;;;6.70;;
54167;SDS011;68429;50.958;3.592;2023-08-17T12:21:55;9.88;;;6.65;;
54167;SDS011;68429;50.958;3.592;2023-08-17T12:24:23;12.82;;;8.40;;
54167;SDS011;68429;50.958;3.592;2023-08-17T12:26:49;11.50;;;7.25;;
54167;SDS011;68429;50.958;3.592;2023-08-17T12:29:15;11.07;;;6.82;;
54167;SDS011;68429;50.958;3.592;2023-08-17T12:31:41;10.98;;;7.72;;
54167;SDS011;68429;50.958;3.592;2023-08-17T12:34:06;11.68;;;7.72;;
54167;SDS011;68429;50.958;3.592;2023-08-17T12:36:32;10.25;;;8.07;;
54167;SDS011;68429;50.958;3.592;2023-08-17T12:39:00;17.73;;;10.38;;
54167;SDS011;68429;50.958;3.592;2023-08-17T12:41:26;10.38;;;8.80;;
54167;SDS011;68429;50.958;3.592;2023-08-17T12:43:51;12.38;;;8.35;;
54167;SDS011;68429;50.958;3.592;2023-08-17T12:46:19;10.80;;;8.43;;
54167;SDS011;68429;50.958;3.592;2023-08-17T12:48:45;20.38;;;9.23;;
54167;SDS011;68429;50.958;3.592;2023-08-17T12:51:10;14.80;;;8.55;;
54167;SDS011;68429;50.958;3.592;2023-08-17T12:53:36;9.20;;;7.80;;
54167;SDS011;68429;50.958;3.592;2023-08-17T12:56:02;14.88;;;9.23;;
54167;SDS011;68429;50.958;3.592;2023-08-17T12:58:29;13.57;;;9.57;;
54167;SDS011;68429;50.958;3.592;2023-08-17T13:00:54;11.30;;;7.88;;
54167;SDS011;68429;50.958;3.592;2023-08-17T13:03:20;14.93;;;8.30;;
54167;SDS011;68429;50.958;3.592;2023-08-17T13:05:46;12.20;;;9.30;;
54167;SDS011;68429;50.958;3.592;2023-08-17T13:08:11;13.48;;;9.00;;
54167;SDS011;68429;50.958;3.592;2023-08-17T13:10:37;13.85;;;8.85;;
54167;SDS011;68429;50.958;3.592;2023-08-17T13:13:02;14.65;;;8.90;;
54167;SDS011;68429;50.958;3.592;2023-08-17T13:15:29;19.08;;;9.70;;
54167;SDS011;68429;50.958;3.592;2023-08-17T13:17:54;11.63;;;8.55;;
54167;SDS011;68429;50.958;3.592;2023-08-17T13:20:20;12.40;;;9.25;;
54167;SDS011;68429;50.958;3.592;2023-08-17T13:22:47;17.90;;;10.43;;
54167;SDS011;68429;50.958;3.592;2023-08-17T13:25:13;14.82;;;9.65;;
54167;SDS011;68429;50.958;3.592;2023-08-17T13:27:38;12.50;;;9.13;;
54167;SDS011;68429;50.958;3.592;2023-08-17T13:30:04;10.98;;;8.10;;
54167;SDS011;68429;50.958;3.592;2023-08-17T13:32:30;13.15;;;7.85;;
54167;SDS011;68429;50.958;3.592;2023-08-17T13:34:55;13.63;;;8.38;;
54167;SDS011;68429;50.958;3.592;2023-08-17T13:37:21;9.07;;;7.75;;
54167;SDS011;68429;50.958;3.592;2023-08-17T13:39:47;8.88;;;7.05;;
54167;SDS011;68429;50.958;3.592;2023-08-17T13:42:13;13.20;;;8.07;;
54167;SDS011;68429;50.958;3.592;2023-08-17T13:44:39;11.88;;;7.60;;
54167;SDS011;68429;50.958;3.592;2023-08-17T13:47:05;7.95;;;6.80;;
54167;SDS011;68429;50.958;3.592;2023-08-17T13:49:30;10.32;;;7.18;;
54167;SDS011;68429;50.958;3.592;2023-08-17T13:51:56;11.27;;;7.43;;
54167;SDS011;68429;50.958;3.592;2023-08-17T13:54:22;10.88;;;6.53;;
54167;SDS011;68429;50.958;3.592;2023-08-17T13:56:48;12.45;;;6.97;;
54167;SDS011;68429;50.958;3.592;2023-08-17T13:59:14;10.75;;;6.68;;
54167;SDS011;68429;50.958;3.592;2023-08-17T14:01:40;10.35;;;6.90;;
54167;SDS011;68429;50.958;3.592;2023-08-17T14:04:06;11.48;;;7.20;;
54167;SDS011;68429;50.958;3.592;2023-08-17T14:06:36;10.65;;;7.13;;
54167;SDS011;68429;50.958;3.592;2023-08-17T14:09:02;11.45;;;7.88;;
54167;SDS011;68429;50.958;3.592;2023-08-17T14:11:28;10.77;;;7.68;;
54167;SDS011;68429;50.958;3.592;2023-08-17T14:13:53;14.82;;;9.25;;
54167;SDS011;68429;50.958;3.592;2023-08-17T14:16:19;11.32;;;9.13;;
54167;SDS011;68429;50.958;3.592;2023-08-17T14:18:45;11.60;;;9.25;;
54167;SDS011;68429;50.958;3.592;2023-08-17T14:21:10;12.32;;;8.90;;
54167;SDS011;68429;50.958;3.592;2023-08-17T14:23:37;10.40;;;8.45;;
54167;SDS011;68429;50.958;3.592;2023-08-17T14:26:03;12.05;;;9.10;;
54167;SDS011;68429;50.958;3.592;2023-08-17T14:28:29;15.57;;;9.35;;
54167;SDS011;68429;50.958;3.592;2023-08-17T14:30:54;13.93;;;10.27;;
54167;SDS011;68429;50.958;3.592;2023-08-17T14:33:20;13.00;;;10.00;;
54167;SDS011;68429;50.958;3.592;2023-08-17T14:35:46;15.27;;;10.55;;
54167;SDS011;68429;50.958;3.592;2023-08-17T14:38:12;12.35;;;10.25;;
54167;SDS011;68429;50.958;3.592;2023-08-17T14:40:47;15.43;;;10.02;;
54167;SDS011;68429;50.958;3.592;2023-08-17T14:43:14;13.70;;;9.73;;
54167;SDS011;68429;50.958;3.592;2023-08-17T14:45:40;12.90;;;11.15;;
54167;SDS011;68429;50.958;3.592;2023-08-17T14:48:07;10.93;;;9.82;;
54167;SDS011;68429;50.958;3.592;2023-08-17T14:50:36;17.90;;;11.48;;
54167;SDS011;68429;50.958;3.592;2023-08-17T14:53:03;14.27;;;10.52;;